createdAt,value
2022-12-03T00:00:15.169Z,2.22
2022-12-03T00:02:43.251Z,2.17
2022-12-03T00:05:11.384Z,2.20
2022-12-03T00:07:39.446Z,2.18
2022-12-03T00:10:08.344Z,2.20
2022-12-03T00:12:36.137Z,2.18
2022-12-03T00:15:04.961Z,2.22
2022-12-03T00:17:33.638Z,2.22
2022-12-03T00:20:01.552Z,2.27
2022-12-03T00:22:29.371Z,2.25
2022-12-03T00:24:57.323Z,2.21
2022-12-03T00:27:25.111Z,2.21
2022-12-03T00:29:53.073Z,2.20
2022-12-03T00:32:20.881Z,2.21
2022-12-03T00:34:48.751Z,2.24
2022-12-03T00:37:16.618Z,2.24
2022-12-03T00:39:44.626Z,2.25
2022-12-03T00:42:12.515Z,2.24
2022-12-03T00:44:40.511Z,2.22
2022-12-03T00:47:09.643Z,2.28
2022-12-03T00:49:37.725Z,2.27
2022-12-03T00:52:05.591Z,2.21
2022-12-03T00:54:33.728Z,2.24
2022-12-03T00:57:01.615Z,2.21
2022-12-03T00:59:29.629Z,2.27
2022-12-03T01:01:57.602Z,2.22
2022-12-03T01:04:25.492Z,2.25
2022-12-03T01:06:53.591Z,2.25
2022-12-03T01:09:21.483Z,2.25
2022-12-03T01:11:49.360Z,2.28
2022-12-03T01:14:19.152Z,2.25
2022-12-03T01:16:50.764Z,2.27
2022-12-03T01:19:19.520Z,2.27
2022-12-03T01:21:51.732Z,2.29
2022-12-03T01:24:20.478Z,2.29
2022-12-03T01:26:48.572Z,2.31
2022-12-03T01:29:16.395Z,2.31
2022-12-03T01:32:03.298Z,2.31
2022-12-03T01:34:32.207Z,2.32
2022-12-03T01:37:00.007Z,2.32
2022-12-03T01:39:27.833Z,2.31
2022-12-03T01:41:56.479Z,2.35
2022-12-03T01:44:27.393Z,2.32
2022-12-03T01:46:57.201Z,2.32
2022-12-03T01:49:42.239Z,2.35
2022-12-03T01:52:13.696Z,2.34
2022-12-03T01:55:00.050Z,2.34
2022-12-03T01:57:39.805Z,2.34
2022-12-03T02:00:12.970Z,2.34
2022-12-03T02:02:41.157Z,2.38
2022-12-03T02:05:32.965Z,2.35
2022-12-03T02:08:01.567Z,2.38
2022-12-03T02:10:34.576Z,2.35
2022-12-03T02:13:04.493Z,2.34
2022-12-03T02:15:32.358Z,2.36
2022-12-03T02:18:00.699Z,2.39
2022-12-03T02:20:29.697Z,2.42
2022-12-03T02:23:18.168Z,2.39
2022-12-03T02:25:46.317Z,2.39
2022-12-03T02:28:14.284Z,2.41
2022-12-03T02:30:42.664Z,2.42
2022-12-03T02:33:10.540Z,2.44
2022-12-03T02:35:39.648Z,2.41
2022-12-03T02:38:18.405Z,2.38
2022-12-03T02:40:48.468Z,2.44
2022-12-03T02:43:17.965Z,2.41
2022-12-03T02:45:49.630Z,2.42
2022-12-03T02:48:18.850Z,2.42
2022-12-03T02:50:50.204Z,2.42
2022-12-03T02:53:44.479Z,2.42
2022-12-03T02:56:20.042Z,2.42
2022-12-03T02:58:51.706Z,2.41
2022-12-03T03:01:19.981Z,2.41
2022-12-03T03:03:48.747Z,2.44
2022-12-03T03:06:18.544Z,2.44
2022-12-03T03:08:48.038Z,2.42
2022-12-03T03:11:15.845Z,2.44
2022-12-03T03:13:43.865Z,2.44
2022-12-03T03:16:11.748Z,2.42
2022-12-03T03:18:40.128Z,2.42
2022-12-03T03:21:08.390Z,2.44
2022-12-03T03:23:36.227Z,2.44
2022-12-03T03:26:09.422Z,2.44
2022-12-03T03:28:40.668Z,2.42
2022-12-03T03:31:10.442Z,2.46
2022-12-03T03:33:41.622Z,2.42
2022-12-03T03:36:09.955Z,2.42
2022-12-03T03:38:39.222Z,2.44
2022-12-03T03:41:08.238Z,2.39
2022-12-03T03:43:38.220Z,2.41
2022-12-03T03:46:07.711Z,2.39
2022-12-03T03:48:36.083Z,2.41
2022-12-03T03:51:08.771Z,2.41
2022-12-03T03:53:43.866Z,2.42
2022-12-03T03:56:11.698Z,2.34
2022-12-03T03:58:39.737Z,2.35
2022-12-03T04:01:09.152Z,2.34
2022-12-03T04:03:37.241Z,2.35
2022-12-03T04:06:05.616Z,2.35
2022-12-03T04:08:33.493Z,2.34
2022-12-03T04:11:19.702Z,2.35
2022-12-03T04:13:47.859Z,2.31
2022-12-03T04:16:15.636Z,2.28
2022-12-03T04:18:43.493Z,2.28
2022-12-03T04:21:32.383Z,2.27
2022-12-03T04:24:00.971Z,2.28
2022-12-03T04:26:47.662Z,2.28
2022-12-03T04:29:19.508Z,2.25
2022-12-03T04:32:06.230Z,2.25
2022-12-03T04:34:53.160Z,2.25
2022-12-03T04:37:21.560Z,2.24
2022-12-03T04:39:49.497Z,2.25
2022-12-03T04:42:17.450Z,2.22
2022-12-03T04:44:45.309Z,2.27
2022-12-03T04:47:18.755Z,2.24
2022-12-03T04:49:48.661Z,2.24
2022-12-03T04:52:19.252Z,2.25
2022-12-03T04:54:47.502Z,2.24
2022-12-03T04:57:15.402Z,2.22
2022-12-03T04:59:43.155Z,2.20
2022-12-03T05:02:10.966Z,2.21
2022-12-03T05:04:38.800Z,2.22
2022-12-03T05:07:13.350Z,2.25
2022-12-03T05:09:41.375Z,2.24
2022-12-03T05:12:09.761Z,2.24
2022-12-03T05:14:37.641Z,2.22
2022-12-03T05:17:05.519Z,2.24
2022-12-03T05:19:52.029Z,2.18
2022-12-03T05:22:19.866Z,2.18
2022-12-03T05:24:48.414Z,2.18
2022-12-03T05:27:21.728Z,2.21
2022-12-03T05:29:52.074Z,2.15
2022-12-03T05:32:20.266Z,2.18
2022-12-03T05:34:48.017Z,2.17
2022-12-03T05:37:15.902Z,2.13
2022-12-03T05:39:43.758Z,2.10
2022-12-03T05:42:31.501Z,2.06
2022-12-03T05:44:59.375Z,2.00
2022-12-03T05:47:27.173Z,2.00
2022-12-03T05:49:54.989Z,1.97
2022-12-03T05:52:22.720Z,1.98
2022-12-03T05:54:50.665Z,1.97
2022-12-03T05:57:18.500Z,1.96
2022-12-03T05:59:46.361Z,1.98
2022-12-03T06:02:14.893Z,1.96
2022-12-03T06:04:42.746Z,1.93
2022-12-03T06:07:13.953Z,1.94
2022-12-03T06:09:42.214Z,1.93
2022-12-03T06:12:10.104Z,1.89
2022-12-03T06:14:37.947Z,1.93
2022-12-03T06:17:07.752Z,1.91
2022-12-03T06:19:35.920Z,1.87
2022-12-03T06:22:03.673Z,1.86
2022-12-03T06:24:31.608Z,1.86
2022-12-03T06:26:59.373Z,1.84
2022-12-03T06:29:27.135Z,1.77
2022-12-03T06:31:54.951Z,1.79
2022-12-03T06:34:22.752Z,1.81
2022-12-03T06:36:50.735Z,1.81
2022-12-03T06:39:18.933Z,1.79
2022-12-03T06:41:46.734Z,1.79
2022-12-03T06:44:14.884Z,1.77
2022-12-03T06:46:42.870Z,1.80
2022-12-03T06:49:10.973Z,1.80
2022-12-03T06:51:38.936Z,1.76
2022-12-03T06:54:07.082Z,1.77
2022-12-03T06:56:39.083Z,1.77
2022-12-03T06:59:11.228Z,1.79
2022-12-03T07:01:39.082Z,1.77
2022-12-03T07:04:07.077Z,1.77
2022-12-03T07:06:35.132Z,1.76
2022-12-03T07:09:02.985Z,1.79
2022-12-03T07:11:31.398Z,1.77
2022-12-03T07:14:05.044Z,1.77
2022-12-03T07:16:36.803Z,1.76
2022-12-03T07:19:06.664Z,1.76
2022-12-03T07:21:34.572Z,1.73
2022-12-03T07:24:02.390Z,1.77
2022-12-03T07:26:30.245Z,1.74
2022-12-03T07:28:59.502Z,1.74
2022-12-03T07:31:27.453Z,1.69
2022-12-03T07:33:56.102Z,1.69
2022-12-03T07:36:24.014Z,1.73
2022-12-03T07:38:51.942Z,1.74
2022-12-03T07:41:19.799Z,1.70
2022-12-03T07:43:48.228Z,1.67
2022-12-03T07:46:16.474Z,1.69
2022-12-03T07:48:44.409Z,1.69
2022-12-03T07:51:15.452Z,1.70
2022-12-03T07:53:43.617Z,1.64
2022-12-03T07:56:11.393Z,1.64
2022-12-03T07:58:39.215Z,1.63
2022-12-03T08:01:07.218Z,1.64
2022-12-03T08:03:35.121Z,1.62
2022-12-03T08:06:03.063Z,1.64
2022-12-03T08:08:30.960Z,1.60
2022-12-03T08:10:58.786Z,1.63
2022-12-03T08:13:27.165Z,1.62
2022-12-03T08:16:01.378Z,1.63
2022-12-03T08:18:29.451Z,1.63
2022-12-03T08:20:57.305Z,1.63
2022-12-03T08:23:26.309Z,1.62
2022-12-03T08:25:55.221Z,1.60
2022-12-03T08:28:27.801Z,1.60
2022-12-03T08:31:18.443Z,1.53
2022-12-03T08:33:48.548Z,1.45
2022-12-03T08:36:30.316Z,1.39
2022-12-03T08:39:05.295Z,1.38
2022-12-03T08:41:51.371Z,1.35
2022-12-03T08:44:28.195Z,1.31
2022-12-03T08:47:19.710Z,1.31
2022-12-03T08:49:59.898Z,1.30
2022-12-03T08:52:32.549Z,1.30
2022-12-03T08:55:09.490Z,1.32
2022-12-03T08:57:37.438Z,1.34
2022-12-03T09:00:20.838Z,1.35
2022-12-03T09:02:54.564Z,1.41
2022-12-03T09:05:41.265Z,1.35
2022-12-03T09:08:09.207Z,1.39
2022-12-03T09:10:37.470Z,1.46
2022-12-03T09:13:05.950Z,1.48
2022-12-03T09:15:33.942Z,1.49
2022-12-03T09:18:02.067Z,1.48
2022-12-03T09:20:30.000Z,1.46
2022-12-03T09:22:57.945Z,1.45
2022-12-03T09:25:25.908Z,1.44
2022-12-03T09:27:53.853Z,1.46
2022-12-03T09:30:21.719Z,1.45
2022-12-03T09:32:49.620Z,1.38
2022-12-03T09:35:17.654Z,1.34
2022-12-03T09:37:45.466Z,1.25
2022-12-03T09:40:13.981Z,1.31
2022-12-03T09:42:42.141Z,1.34
2022-12-03T09:45:14.240Z,1.36
2022-12-03T09:47:46.155Z,1.36
2022-12-03T09:50:16.878Z,1.41
2022-12-03T09:52:45.422Z,1.39
2022-12-03T09:55:21.752Z,1.36
2022-12-03T09:57:51.112Z,1.34
2022-12-03T10:00:25.221Z,1.35
2022-12-03T10:02:56.977Z,1.35
2022-12-03T10:05:25.268Z,1.34
2022-12-03T10:07:53.731Z,1.30
2022-12-03T10:10:24.041Z,1.25
2022-12-03T10:12:52.753Z,1.21
2022-12-03T10:15:23.253Z,1.21
2022-12-03T10:17:54.626Z,1.13
2022-12-03T10:20:23.972Z,1.11
2022-12-03T10:22:51.826Z,1.15
2022-12-03T10:25:22.623Z,1.08
2022-12-03T10:28:02.527Z,1.08
2022-12-03T10:30:31.248Z,1.11
2022-12-03T10:33:14.377Z,1.13
2022-12-03T10:35:45.124Z,1.17
2022-12-03T10:38:20.266Z,1.15
2022-12-03T10:40:48.297Z,1.14
2022-12-03T10:43:19.052Z,1.13
2022-12-03T10:45:52.126Z,1.09
2022-12-03T10:48:25.345Z,1.09
2022-12-03T10:50:55.888Z,1.13
2022-12-03T10:53:28.278Z,1.13
2022-12-03T10:55:59.597Z,1.14
2022-12-03T10:58:34.872Z,1.18
2022-12-03T11:01:06.344Z,1.17
2022-12-03T11:03:36.718Z,1.23
2022-12-03T11:06:04.872Z,1.07
2022-12-03T11:08:36.193Z,1.11
2022-12-03T11:11:06.104Z,1.05
2022-12-03T11:13:33.878Z,1.04
2022-12-03T11:16:08.259Z,1.11
2022-12-03T11:18:39.116Z,1.07
2022-12-03T11:21:08.268Z,1.05
2022-12-03T11:23:44.990Z,1.05
2022-12-03T11:26:18.658Z,1.05
2022-12-03T11:28:47.235Z,1.07
2022-12-03T11:31:36.206Z,1.05
2022-12-03T11:34:19.633Z,1.01
2022-12-03T11:37:12.428Z,1.05
2022-12-03T11:39:52.737Z,1.03
2022-12-03T11:42:25.450Z,1.00
2022-12-03T11:45:05.681Z,1.03
2022-12-03T11:47:46.590Z,0.97
2022-12-03T11:50:24.134Z,0.93
2022-12-03T11:53:01.145Z,0.96
2022-12-03T11:55:44.557Z,0.96
2022-12-03T11:58:28.193Z,1.04
2022-12-03T12:00:58.874Z,1.08
2022-12-03T12:03:33.232Z,0.86
2022-12-03T12:06:08.943Z,0.83
2022-12-03T12:08:40.378Z,0.79
2022-12-03T12:11:19.510Z,0.80
2022-12-03T12:13:52.599Z,0.81
2022-12-03T12:16:53.793Z,0.73
2022-12-03T12:19:35.469Z,0.75
2022-12-03T12:22:22.428Z,0.79
2022-12-03T12:24:52.002Z,0.79
2022-12-03T12:27:45.190Z,0.73
2022-12-03T12:30:19.040Z,0.66
2022-12-03T12:32:53.427Z,0.65
2022-12-03T12:35:30.838Z,0.63
2022-12-03T12:38:07.760Z,0.61
2022-12-03T12:40:38.351Z,0.63
2022-12-03T12:43:14.418Z,0.69
2022-12-03T12:45:44.699Z,0.68
2022-12-03T12:48:28.708Z,0.72
2022-12-03T12:51:11.711Z,0.72
2022-12-03T12:53:42.867Z,0.73
2022-12-03T12:56:31.063Z,0.73
2022-12-03T12:59:09.866Z,0.75
2022-12-03T13:01:38.565Z,0.77
2022-12-03T13:04:20.864Z,0.80
2022-12-03T13:06:52.019Z,0.81
2022-12-03T13:09:24.193Z,0.83
2022-12-03T13:11:59.131Z,0.89
2022-12-03T13:14:42.047Z,0.91
2022-12-03T13:17:29.111Z,0.91
2022-12-03T13:20:07.045Z,0.94
2022-12-03T13:22:35.737Z,0.94
2022-12-03T13:25:58.841Z,0.90
2022-12-03T13:28:24.038Z,0.91
2022-12-03T13:30:52.008Z,0.91
2022-12-03T13:33:27.487Z,0.81
2022-12-03T13:35:56.792Z,0.83
2022-12-03T13:38:25.998Z,0.87
2022-12-03T13:41:02.381Z,0.87
2022-12-03T13:43:39.907Z,0.93
2022-12-03T13:46:11.071Z,0.90
2022-12-03T13:48:43.165Z,0.93
2022-12-03T13:51:36.561Z,0.94
2022-12-03T13:54:05.470Z,0.94
2022-12-03T13:56:33.884Z,0.96
2022-12-03T13:59:04.038Z,0.97
2022-12-03T14:01:32.402Z,0.96
2022-12-03T14:04:00.443Z,0.91
2022-12-03T14:06:28.390Z,0.87
2022-12-03T14:08:56.378Z,0.84
2022-12-03T14:11:59.793Z,0.86
2022-12-03T14:14:27.564Z,0.84
2022-12-03T14:16:59.658Z,0.77
2022-12-03T14:19:28.085Z,0.75
2022-12-03T14:21:56.093Z,0.76
2022-12-03T14:24:24.415Z,0.75
2022-12-03T14:26:52.494Z,0.73
2022-12-03T14:29:20.838Z,0.69
2022-12-03T14:31:48.774Z,0.70
2022-12-03T14:34:17.177Z,0.66
2022-12-03T14:36:46.397Z,0.68
2022-12-03T14:39:14.837Z,0.63
2022-12-03T14:42:01.619Z,0.68
2022-12-03T14:44:29.771Z,0.62
2022-12-03T14:46:58.135Z,0.65
2022-12-03T14:49:26.607Z,0.61
2022-12-03T14:51:54.952Z,0.58
2022-12-03T14:54:23.518Z,0.53
2022-12-03T14:56:51.729Z,0.56
2022-12-03T14:59:24.507Z,0.55
2022-12-03T15:01:55.918Z,0.56
2022-12-03T15:04:24.493Z,0.48
2022-12-03T15:06:53.007Z,0.55
2022-12-03T15:09:21.600Z,0.51
2022-12-03T15:11:49.974Z,0.46
2022-12-03T15:14:18.352Z,0.45
2022-12-03T15:16:47.008Z,0.45
2022-12-03T15:19:16.114Z,0.46
2022-12-03T15:21:44.506Z,0.45
2022-12-03T15:24:12.719Z,0.48
2022-12-03T15:26:40.965Z,0.45
2022-12-03T15:29:09.206Z,0.41
2022-12-03T15:31:37.523Z,0.49
2022-12-03T15:34:05.983Z,0.49
2022-12-03T15:36:34.158Z,0.45
2022-12-03T15:39:02.616Z,0.42
2022-12-03T15:41:31.405Z,0.45
2022-12-03T15:44:02.177Z,0.41
2022-12-03T15:46:31.364Z,0.40
2022-12-03T15:48:59.389Z,0.42
2022-12-03T15:51:27.382Z,0.42
2022-12-03T15:53:55.470Z,0.42
2022-12-03T15:56:23.260Z,0.40
2022-12-03T15:58:51.062Z,0.37
2022-12-03T16:01:18.964Z,0.35
2022-12-03T16:03:47.070Z,0.38
2022-12-03T16:06:14.908Z,0.38
2022-12-03T16:08:42.818Z,0.31
2022-12-03T16:11:10.982Z,0.31
2022-12-03T16:13:38.827Z,0.28
2022-12-03T16:16:06.890Z,0.26
2022-12-03T16:18:35.154Z,0.32
2022-12-03T16:21:03.034Z,0.31
2022-12-03T16:23:30.907Z,0.25
2022-12-03T16:25:58.804Z,0.25
2022-12-03T16:28:26.661Z,0.29
2022-12-03T16:30:54.634Z,0.25
2022-12-03T16:33:27.234Z,0.25
2022-12-03T16:35:55.981Z,0.24
2022-12-03T16:38:24.956Z,0.25
2022-12-03T16:40:52.769Z,0.28
2022-12-03T16:43:20.682Z,0.31
2022-12-03T16:46:01.761Z,0.32
2022-12-03T16:48:30.443Z,0.26
2022-12-03T16:50:58.218Z,0.28
2022-12-03T16:53:26.085Z,0.26
2022-12-03T16:55:53.925Z,0.25
2022-12-03T16:58:21.773Z,0.28
2022-12-03T17:00:50.301Z,0.29
2022-12-03T17:03:18.343Z,0.28
2022-12-03T17:05:46.867Z,0.31
2022-12-03T17:08:15.887Z,0.28
2022-12-03T17:10:44.171Z,0.25
2022-12-03T17:13:12.293Z,0.24
2022-12-03T17:15:40.774Z,0.31
2022-12-03T17:18:09.313Z,0.26
2022-12-03T17:20:37.866Z,0.26
2022-12-03T17:23:05.718Z,0.28
2022-12-03T17:25:34.381Z,0.28
2022-12-03T17:28:02.694Z,0.28
2022-12-03T17:30:30.756Z,0.29
2022-12-03T17:32:58.629Z,0.31
2022-12-03T17:35:28.437Z,0.31
2022-12-03T17:37:56.523Z,0.29
2022-12-03T17:40:24.582Z,0.25
2022-12-03T17:42:52.416Z,0.29
2022-12-03T17:45:20.239Z,0.26
2022-12-03T17:47:48.641Z,0.29
2022-12-03T17:50:16.622Z,0.32
2022-12-03T17:52:44.602Z,0.31
2022-12-03T17:55:18.021Z,0.35
2022-12-03T17:57:51.914Z,0.32
2022-12-03T18:00:20.171Z,0.29
2022-12-03T18:02:48.001Z,0.22
2022-12-03T18:05:16.026Z,0.25
2022-12-03T18:07:43.990Z,0.26
2022-12-03T18:10:12.283Z,0.26
2022-12-03T18:12:40.314Z,0.22
2022-12-03T18:15:09.271Z,0.22
2022-12-03T18:17:37.445Z,0.24
2022-12-03T18:20:06.214Z,0.26
2022-12-03T18:22:34.723Z,0.25
2022-12-03T18:25:03.407Z,0.21
2022-12-03T18:27:31.243Z,0.21
2022-12-03T18:29:59.586Z,0.17
2022-12-03T18:32:29.862Z,0.22
2022-12-03T18:34:58.511Z,0.18
2022-12-03T18:37:28.767Z,0.22
2022-12-03T18:39:57.917Z,0.19
2022-12-03T18:42:26.615Z,0.22
2022-12-03T18:44:56.734Z,0.24
2022-12-03T18:47:29.301Z,0.24
2022-12-03T18:49:58.033Z,0.19
2022-12-03T18:52:26.216Z,0.24
2022-12-03T18:54:55.292Z,0.26
2022-12-03T18:57:23.686Z,0.21
2022-12-03T18:59:51.846Z,0.18
2022-12-03T19:02:54.289Z,0.21
2022-12-03T19:05:11.715Z,0.18
2022-12-03T19:07:39.701Z,0.14
2022-12-03T19:10:08.951Z,0.15
2022-12-03T19:12:38.003Z,0.21
2022-12-03T19:15:06.786Z,0.18
2022-12-03T19:17:34.704Z,0.18
2022-12-03T19:20:03.389Z,0.14
2022-12-03T19:22:31.378Z,0.15
2022-12-03T19:24:59.346Z,0.15
2022-12-03T19:27:28.928Z,0.14
2022-12-03T19:29:57.502Z,0.18
2022-12-03T19:32:25.583Z,0.14
2022-12-03T19:34:53.635Z,0.15
2022-12-03T19:37:21.578Z,0.14
2022-12-03T19:39:54.402Z,0.15
2022-12-03T19:42:22.775Z,0.13
2022-12-03T19:44:50.621Z,0.18
2022-12-03T19:47:18.597Z,0.15
2022-12-03T19:49:46.456Z,0.14
2022-12-03T19:52:14.680Z,0.18
2022-12-03T19:54:42.811Z,0.14
2022-12-03T19:57:10.893Z,0.08
2022-12-03T19:59:38.813Z,0.10
2022-12-03T20:02:07.464Z,0.10
2022-12-03T20:04:35.512Z,0.13
2022-12-03T20:07:04.907Z,0.18
2022-12-03T20:09:32.891Z,0.10
2022-12-03T20:12:00.823Z,0.13
2022-12-03T20:14:29.322Z,0.08
2022-12-03T20:16:57.447Z,0.13
2022-12-03T20:19:25.668Z,0.07
2022-12-03T20:21:56.428Z,0.10
2022-12-03T20:24:28.793Z,0.11
2022-12-03T20:26:56.837Z,0.08
2022-12-03T20:29:24.877Z,0.01
2022-12-03T20:31:55.271Z,0.04
2022-12-03T20:34:23.484Z,0.03
2022-12-03T20:36:51.411Z,0.06
2022-12-03T20:39:19.493Z,0.07
2022-12-03T20:41:47.416Z,0.10
2022-12-03T20:44:15.425Z,0.07
2022-12-03T20:46:43.635Z,0.08
2022-12-03T20:49:11.788Z,0.06
2022-12-03T20:51:41.317Z,0.04
2022-12-03T20:54:10.597Z,0.03
2022-12-03T20:56:42.126Z,0.00
2022-12-03T20:59:13.146Z,0.11
2022-12-03T21:01:44.444Z,0.08
2022-12-03T21:04:18.082Z,0.07
2022-12-03T21:06:46.441Z,0.10
2022-12-03T21:09:14.776Z,0.06
2022-12-03T21:11:43.209Z,0.04
2022-12-03T21:14:11.749Z,0.01
2022-12-03T21:19:30.218Z,-0.04
2022-12-03T21:21:58.393Z,-0.03
2022-12-03T21:24:26.687Z,-0.07
2022-12-03T21:26:54.727Z,-0.07
2022-12-03T21:29:23.507Z,-0.07
2022-12-03T21:31:51.386Z,-0.04
2022-12-03T21:34:19.406Z,-0.07
2022-12-03T21:36:47.435Z,-0.06
2022-12-03T21:39:15.519Z,0.00
2022-12-03T21:42:19.223Z,-0.02
2022-12-03T21:44:35.028Z,-0.04
2022-12-03T21:47:12.343Z,0.04
2022-12-03T21:49:42.810Z,0.00
2022-12-03T21:52:12.583Z,0.06
2022-12-03T21:54:43.542Z,0.06
2022-12-03T21:57:12.111Z,0.07
2022-12-03T21:59:40.597Z,0.07
2022-12-03T22:02:14.122Z,0.08
2022-12-03T22:04:42.788Z,0.08
2022-12-03T22:07:10.776Z,0.10
2022-12-03T22:09:39.128Z,0.13
2022-12-03T22:12:07.826Z,0.11
2022-12-03T22:14:35.924Z,0.14
2022-12-03T22:17:04.030Z,0.13
2022-12-03T22:19:34.782Z,0.11
2022-12-03T22:22:02.620Z,0.17
2022-12-03T22:24:30.640Z,0.17
2022-12-03T22:26:58.519Z,0.18
2022-12-03T22:29:26.423Z,0.21
2022-12-03T22:31:54.468Z,0.15
2022-12-03T22:34:22.460Z,0.17
2022-12-03T22:36:50.356Z,0.21
2022-12-03T22:39:19.560Z,0.15
2022-12-03T22:41:47.525Z,0.15
2022-12-03T22:44:15.738Z,0.18
2022-12-03T22:46:43.677Z,0.19
2022-12-03T22:49:13.475Z,0.19
2022-12-03T22:51:44.797Z,0.14
2022-12-03T22:54:20.769Z,0.18
2022-12-03T22:56:51.950Z,0.21
2022-12-03T22:59:20.115Z,0.21
2022-12-03T23:01:48.007Z,0.28
2022-12-03T23:04:16.039Z,0.24
2022-12-03T23:06:44.246Z,0.18
2022-12-03T23:09:12.082Z,0.18
2022-12-03T23:11:40.081Z,0.18
2022-12-03T23:14:08.125Z,0.18
2022-12-03T23:16:35.956Z,0.19
2022-12-03T23:19:04.503Z,0.15
2022-12-03T23:21:34.466Z,0.18
2022-12-03T23:24:04.652Z,0.19
2022-12-03T23:26:35.994Z,0.22
2022-12-03T23:29:05.321Z,0.22
2022-12-03T23:31:34.303Z,0.26
2022-12-03T23:34:02.899Z,0.26
2022-12-03T23:36:32.753Z,0.24
2022-12-03T23:39:00.850Z,0.28
2022-12-03T23:41:29.297Z,0.24
2022-12-03T23:43:57.462Z,0.19
2022-12-03T23:46:27.357Z,0.21
2022-12-03T23:48:58.503Z,0.22
2022-12-03T23:51:27.004Z,0.24
2022-12-03T23:53:56.221Z,0.25
2022-12-03T23:56:27.253Z,0.26
2022-12-03T23:58:55.838Z,0.31
